sensor_id;sensor_type;location;lat;lon;timestamp;pressure;altitude;pressure_sealevel;temperature
70050;BMP180;57391;51.306;22.680;2024-01-30T00:01:45;101559.60;;;1.50
70050;BMP180;57391;51.306;22.680;2024-01-30T00:03:46;101554.40;;;1.50
70050;BMP180;57391;51.306;22.680;2024-01-30T00:05:48;101555.40;;;1.50
70050;BMP180;57391;51.306;22.680;2024-01-30T00:07:50;101559.00;;;1.42
70050;BMP180;57391;51.306;22.680;2024-01-30T00:09:52;101560.60;;;1.40
70050;BMP180;57391;51.306;22.680;2024-01-30T00:11:53;101561.00;;;1.40
70050;BMP180;57391;51.306;22.680;2024-01-30T00:13:56;101560.20;;;1.40
70050;BMP180;57391;51.306;22.680;2024-01-30T00:15:58;101558.00;;;1.40
70050;BMP180;57391;51.306;22.680;2024-01-30T00:17:59;101554.60;;;1.40
70050;BMP180;57391;51.306;22.680;2024-01-30T00:20:01;101552.40;;;1.40
70050;BMP180;57391;51.306;22.680;2024-01-30T00:22:06;101558.00;;;1.40
70050;BMP180;57391;51.306;22.680;2024-01-30T00:24:09;101555.00;;;1.40
70050;BMP180;57391;51.306;22.680;2024-01-30T00:26:11;101555.20;;;1.40
70050;BMP180;57391;51.306;22.680;2024-01-30T00:28:12;101551.00;;;1.40
70050;BMP180;57391;51.306;22.680;2024-01-30T00:30:14;101553.20;;;1.36
70050;BMP180;57391;51.306;22.680;2024-01-30T00:32:16;101551.80;;;1.32
70050;BMP180;57391;51.306;22.680;2024-01-30T00:34:18;101556.00;;;1.30
70050;BMP180;57391;51.306;22.680;2024-01-30T00:36:20;101553.40;;;1.30
70050;BMP180;57391;51.306;22.680;2024-01-30T00:38:22;101554.20;;;1.30
70050;BMP180;57391;51.306;22.680;2024-01-30T00:40:24;101553.20;;;1.30
70050;BMP180;57391;51.306;22.680;2024-01-30T00:42:25;101550.60;;;1.30
70050;BMP180;57391;51.306;22.680;2024-01-30T00:44:27;101552.00;;;1.30
70050;BMP180;57391;51.306;22.680;2024-01-30T00:46:29;101553.60;;;1.30
70050;BMP180;57391;51.306;22.680;2024-01-30T00:48:31;101550.00;;;1.30
70050;BMP180;57391;51.306;22.680;2024-01-30T00:50:33;101552.40;;;1.30
70050;BMP180;57391;51.306;22.680;2024-01-30T00:52:34;101546.80;;;1.30
70050;BMP180;57391;51.306;22.680;2024-01-30T00:54:37;101540.40;;;1.30
70050;BMP180;57391;51.306;22.680;2024-01-30T00:56:38;101539.00;;;1.30
70050;BMP180;57391;51.306;22.680;2024-01-30T00:58:40;101545.20;;;1.30
70050;BMP180;57391;51.306;22.680;2024-01-30T01:00:42;101539.20;;;1.30
70050;BMP180;57391;51.306;22.680;2024-01-30T01:02:44;101545.00;;;1.30
70050;BMP180;57391;51.306;22.680;2024-01-30T01:04:46;101543.40;;;1.30
70050;BMP180;57391;51.306;22.680;2024-01-30T01:06:48;101542.40;;;1.30
70050;BMP180;57391;51.306;22.680;2024-01-30T01:08:49;101544.80;;;1.30
70050;BMP180;57391;51.306;22.680;2024-01-30T01:10:51;101542.80;;;1.30
70050;BMP180;57391;51.306;22.680;2024-01-30T01:12:53;101535.00;;;1.30
70050;BMP180;57391;51.306;22.680;2024-01-30T01:14:55;101533.20;;;1.30
70050;BMP180;57391;51.306;22.680;2024-01-30T01:16:56;101531.20;;;1.30
70050;BMP180;57391;51.306;22.680;2024-01-30T01:18:58;101526.80;;;1.30
70050;BMP180;57391;51.306;22.680;2024-01-30T01:21:01;101525.00;;;1.30
70050;BMP180;57391;51.306;22.680;2024-01-30T01:23:03;101524.40;;;1.30
70050;BMP180;57391;51.306;22.680;2024-01-30T01:25:06;101521.60;;;1.30
70050;BMP180;57391;51.306;22.680;2024-01-30T01:27:11;101521.40;;;1.30
70050;BMP180;57391;51.306;22.680;2024-01-30T01:29:13;101514.40;;;1.30
70050;BMP180;57391;51.306;22.680;2024-01-30T01:31:15;101517.00;;;1.30
70050;BMP180;57391;51.306;22.680;2024-01-30T01:33:17;101515.20;;;1.30
70050;BMP180;57391;51.306;22.680;2024-01-30T01:35:19;101513.20;;;1.30
70050;BMP180;57391;51.306;22.680;2024-01-30T01:37:20;101513.40;;;1.30
70050;BMP180;57391;51.306;22.680;2024-01-30T01:39:23;101511.80;;;1.30
70050;BMP180;57391;51.306;22.680;2024-01-30T01:41:33;101510.60;;;1.30
70050;BMP180;57391;51.306;22.680;2024-01-30T01:43:35;101510.80;;;1.30
70050;BMP180;57391;51.306;22.680;2024-01-30T01:45:37;101509.60;;;1.30
70050;BMP180;57391;51.306;22.680;2024-01-30T01:47:38;101508.40;;;1.30
70050;BMP180;57391;51.306;22.680;2024-01-30T01:49:40;101509.00;;;1.30
70050;BMP180;57391;51.306;22.680;2024-01-30T01:51:44;101503.40;;;1.30
70050;BMP180;57391;51.306;22.680;2024-01-30T01:53:47;101503.80;;;1.30
70050;BMP180;57391;51.306;22.680;2024-01-30T01:55:49;101506.80;;;1.30
70050;BMP180;57391;51.306;22.680;2024-01-30T01:57:53;101505.60;;;1.30
70050;BMP180;57391;51.306;22.680;2024-01-30T01:59:55;101508.40;;;1.30
70050;BMP180;57391;51.306;22.680;2024-01-30T02:01:57;101504.40;;;1.30
70050;BMP180;57391;51.306;22.680;2024-01-30T02:04:00;101504.20;;;1.30
70050;BMP180;57391;51.306;22.680;2024-01-30T02:06:03;101512.20;;;1.30
70050;BMP180;57391;51.306;22.680;2024-01-30T02:08:05;101512.80;;;1.30
70050;BMP180;57391;51.306;22.680;2024-01-30T02:10:08;101512.40;;;1.30
70050;BMP180;57391;51.306;22.680;2024-01-30T02:12:11;101515.00;;;1.30
70050;BMP180;57391;51.306;22.680;2024-01-30T02:14:13;101507.20;;;1.30
70050;BMP180;57391;51.306;22.680;2024-01-30T02:16:14;101507.80;;;1.30
70050;BMP180;57391;51.306;22.680;2024-01-30T02:18:16;101509.60;;;1.30
70050;BMP180;57391;51.306;22.680;2024-01-30T02:20:18;101504.20;;;1.30
70050;BMP180;57391;51.306;22.680;2024-01-30T02:22:20;101505.00;;;1.38
70050;BMP180;57391;51.306;22.680;2024-01-30T02:24:23;101499.80;;;1.40
70050;BMP180;57391;51.306;22.680;2024-01-30T02:26:24;101497.40;;;1.40
70050;BMP180;57391;51.306;22.680;2024-01-30T02:28:26;101497.20;;;1.40
70050;BMP180;57391;51.306;22.680;2024-01-30T02:30:28;101498.60;;;1.42
70050;BMP180;57391;51.306;22.680;2024-01-30T02:32:30;101493.80;;;1.48
70050;BMP180;57391;51.306;22.680;2024-01-30T02:34:32;101495.40;;;1.50
70050;BMP180;57391;51.306;22.680;2024-01-30T02:36:34;101491.00;;;1.50
70050;BMP180;57391;51.306;22.680;2024-01-30T02:38:35;101485.80;;;1.50
70050;BMP180;57391;51.306;22.680;2024-01-30T02:40:37;101484.60;;;1.50
70050;BMP180;57391;51.306;22.680;2024-01-30T02:42:39;101483.60;;;1.50
70050;BMP180;57391;51.306;22.680;2024-01-30T02:44:41;101481.20;;;1.48
70050;BMP180;57391;51.306;22.680;2024-01-30T02:46:42;101479.00;;;1.50
70050;BMP180;57391;51.306;22.680;2024-01-30T02:48:44;101479.60;;;1.48
70050;BMP180;57391;51.306;22.680;2024-01-30T02:50:46;101483.40;;;1.48
70050;BMP180;57391;51.306;22.680;2024-01-30T02:52:48;101478.60;;;1.48
70050;BMP180;57391;51.306;22.680;2024-01-30T02:54:50;101478.80;;;1.48
70050;BMP180;57391;51.306;22.680;2024-01-30T02:56:51;101474.20;;;1.46
70050;BMP180;57391;51.306;22.680;2024-01-30T02:58:53;101474.60;;;1.42
70050;BMP180;57391;51.306;22.680;2024-01-30T03:00:55;101474.80;;;1.40
70050;BMP180;57391;51.306;22.680;2024-01-30T03:02:56;101472.00;;;1.40
70050;BMP180;57391;51.306;22.680;2024-01-30T03:04:59;101472.60;;;1.40
70050;BMP180;57391;51.306;22.680;2024-01-30T03:07:01;101471.80;;;1.40
70050;BMP180;57391;51.306;22.680;2024-01-30T03:09:03;101470.80;;;1.30
70050;BMP180;57391;51.306;22.680;2024-01-30T03:11:06;101470.00;;;1.30
70050;BMP180;57391;51.306;22.680;2024-01-30T03:13:07;101466.80;;;1.30
70050;BMP180;57391;51.306;22.680;2024-01-30T03:15:09;101469.20;;;1.30
70050;BMP180;57391;51.306;22.680;2024-01-30T03:17:11;101464.60;;;1.30
70050;BMP180;57391;51.306;22.680;2024-01-30T03:19:12;101464.20;;;1.24
70050;BMP180;57391;51.306;22.680;2024-01-30T03:21:14;101468.00;;;1.20
70050;BMP180;57391;51.306;22.680;2024-01-30T03:23:16;101471.40;;;1.20
70050;BMP180;57391;51.306;22.680;2024-01-30T03:25:17;101469.20;;;1.20
70050;BMP180;57391;51.306;22.680;2024-01-30T03:27:19;101470.20;;;1.20
70050;BMP180;57391;51.306;22.680;2024-01-30T03:29:21;101467.80;;;1.20
70050;BMP180;57391;51.306;22.680;2024-01-30T03:31:23;101470.80;;;1.20
70050;BMP180;57391;51.306;22.680;2024-01-30T03:33:25;101466.60;;;1.20
70050;BMP180;57391;51.306;22.680;2024-01-30T03:35:26;101465.40;;;1.14
70050;BMP180;57391;51.306;22.680;2024-01-30T03:37:28;101463.60;;;1.18
70050;BMP180;57391;51.306;22.680;2024-01-30T03:39:30;101468.40;;;1.18
70050;BMP180;57391;51.306;22.680;2024-01-30T03:41:32;101463.80;;;1.14
70050;BMP180;57391;51.306;22.680;2024-01-30T03:43:34;101465.60;;;1.14
70050;BMP180;57391;51.306;22.680;2024-01-30T03:45:35;101466.80;;;1.10
70050;BMP180;57391;51.306;22.680;2024-01-30T03:47:37;101465.00;;;1.10
70050;BMP180;57391;51.306;22.680;2024-01-30T03:49:39;101465.00;;;1.10
70050;BMP180;57391;51.306;22.680;2024-01-30T03:51:41;101469.00;;;1.10
70050;BMP180;57391;51.306;22.680;2024-01-30T03:53:43;101465.80;;;1.10
70050;BMP180;57391;51.306;22.680;2024-01-30T03:55:45;101463.40;;;1.10
70050;BMP180;57391;51.306;22.680;2024-01-30T03:57:47;101461.80;;;1.10
70050;BMP180;57391;51.306;22.680;2024-01-30T03:59:48;101455.60;;;1.02
70050;BMP180;57391;51.306;22.680;2024-01-30T04:01:50;101451.60;;;1.02
70050;BMP180;57391;51.306;22.680;2024-01-30T04:03:52;101450.00;;;1.00
70050;BMP180;57391;51.306;22.680;2024-01-30T04:05:54;101452.80;;;1.00
70050;BMP180;57391;51.306;22.680;2024-01-30T04:07:56;101455.80;;;1.00
70050;BMP180;57391;51.306;22.680;2024-01-30T04:09:58;101453.00;;;1.00
70050;BMP180;57391;51.306;22.680;2024-01-30T04:11:59;101455.20;;;1.00
70050;BMP180;57391;51.306;22.680;2024-01-30T04:14:01;101459.80;;;0.98
70050;BMP180;57391;51.306;22.680;2024-01-30T04:16:03;101461.20;;;0.98
70050;BMP180;57391;51.306;22.680;2024-01-30T04:18:05;101454.80;;;0.96
70050;BMP180;57391;51.306;22.680;2024-01-30T04:20:08;101452.00;;;0.90
70050;BMP180;57391;51.306;22.680;2024-01-30T04:22:09;101454.60;;;0.90
70050;BMP180;57391;51.306;22.680;2024-01-30T04:24:11;101455.40;;;0.90
70050;BMP180;57391;51.306;22.680;2024-01-30T04:26:13;101458.20;;;0.90
70050;BMP180;57391;51.306;22.680;2024-01-30T04:28:14;101458.80;;;0.90
70050;BMP180;57391;51.306;22.680;2024-01-30T04:30:16;101459.80;;;0.90
70050;BMP180;57391;51.306;22.680;2024-01-30T04:32:18;101462.60;;;0.90
70050;BMP180;57391;51.306;22.680;2024-01-30T04:34:20;101459.40;;;0.90
70050;BMP180;57391;51.306;22.680;2024-01-30T04:36:22;101455.80;;;0.90
70050;BMP180;57391;51.306;22.680;2024-01-30T04:38:23;101453.40;;;0.90
70050;BMP180;57391;51.306;22.680;2024-01-30T04:40:25;101449.60;;;0.90
70050;BMP180;57391;51.306;22.680;2024-01-30T04:42:27;101448.20;;;0.90
70050;BMP180;57391;51.306;22.680;2024-01-30T04:44:29;101444.40;;;0.90
70050;BMP180;57391;51.306;22.680;2024-01-30T04:46:30;101450.00;;;0.90
70050;BMP180;57391;51.306;22.680;2024-01-30T04:48:32;101447.00;;;0.90
70050;BMP180;57391;51.306;22.680;2024-01-30T04:50:34;101442.40;;;0.88
70050;BMP180;57391;51.306;22.680;2024-01-30T04:52:35;101439.40;;;0.84
70050;BMP180;57391;51.306;22.680;2024-01-30T04:54:37;101442.20;;;0.82
70050;BMP180;57391;51.306;22.680;2024-01-30T04:56:39;101440.20;;;0.80
70050;BMP180;57391;51.306;22.680;2024-01-30T04:58:41;101436.40;;;0.80
70050;BMP180;57391;51.306;22.680;2024-01-30T05:00:43;101437.20;;;0.80
70050;BMP180;57391;51.306;22.680;2024-01-30T05:02:45;101441.60;;;0.80
70050;BMP180;57391;51.306;22.680;2024-01-30T05:04:47;101444.60;;;0.80
70050;BMP180;57391;51.306;22.680;2024-01-30T05:06:48;101447.80;;;0.80
70050;BMP180;57391;51.306;22.680;2024-01-30T05:08:50;101447.60;;;0.80
70050;BMP180;57391;51.306;22.680;2024-01-30T05:10:52;101451.00;;;0.80
70050;BMP180;57391;51.306;22.680;2024-01-30T05:12:54;101449.80;;;0.80
70050;BMP180;57391;51.306;22.680;2024-01-30T05:14:55;101453.20;;;0.80
70050;BMP180;57391;51.306;22.680;2024-01-30T05:16:57;101455.00;;;0.80
70050;BMP180;57391;51.306;22.680;2024-01-30T05:18:59;101450.80;;;0.80
70050;BMP180;57391;51.306;22.680;2024-01-30T05:21:02;101448.20;;;0.84
70050;BMP180;57391;51.306;22.680;2024-01-30T05:23:04;101449.00;;;0.86
70050;BMP180;57391;51.306;22.680;2024-01-30T05:25:06;101449.00;;;0.86
70050;BMP180;57391;51.306;22.680;2024-01-30T05:27:08;101445.40;;;0.90
70050;BMP180;57391;51.306;22.680;2024-01-30T05:29:10;101448.00;;;0.90
70050;BMP180;57391;51.306;22.680;2024-01-30T05:31:12;101444.20;;;0.90
70050;BMP180;57391;51.306;22.680;2024-01-30T05:33:13;101444.40;;;0.90
70050;BMP180;57391;51.306;22.680;2024-01-30T05:35:15;101445.60;;;0.90
70050;BMP180;57391;51.306;22.680;2024-01-30T05:37:17;101450.60;;;0.90
70050;BMP180;57391;51.306;22.680;2024-01-30T05:39:19;101443.60;;;0.90
70050;BMP180;57391;51.306;22.680;2024-01-30T05:41:21;101445.40;;;0.90
70050;BMP180;57391;51.306;22.680;2024-01-30T05:43:23;101445.40;;;0.90
70050;BMP180;57391;51.306;22.680;2024-01-30T05:45:25;101448.20;;;0.90
70050;BMP180;57391;51.306;22.680;2024-01-30T05:47:26;101446.20;;;0.90
70050;BMP180;57391;51.306;22.680;2024-01-30T05:49:28;101449.00;;;0.90
70050;BMP180;57391;51.306;22.680;2024-01-30T05:51:30;101452.80;;;0.90
70050;BMP180;57391;51.306;22.680;2024-01-30T05:53:32;101452.00;;;0.90
70050;BMP180;57391;51.306;22.680;2024-01-30T05:55:33;101455.00;;;0.90
70050;BMP180;57391;51.306;22.680;2024-01-30T05:57:35;101448.80;;;0.90
70050;BMP180;57391;51.306;22.680;2024-01-30T05:59:37;101443.40;;;0.92
70050;BMP180;57391;51.306;22.680;2024-01-30T06:01:46;101447.80;;;1.00
70050;BMP180;57391;51.306;22.680;2024-01-30T06:03:48;101443.20;;;1.00
70050;BMP180;57391;51.306;22.680;2024-01-30T06:05:50;101442.60;;;1.00
70050;BMP180;57391;51.306;22.680;2024-01-30T06:07:51;101447.80;;;1.00
70050;BMP180;57391;51.306;22.680;2024-01-30T06:09:53;101448.00;;;1.00
70050;BMP180;57391;51.306;22.680;2024-01-30T06:11:55;101447.40;;;1.00
70050;BMP180;57391;51.306;22.680;2024-01-30T06:13:57;101444.40;;;1.00
70050;BMP180;57391;51.306;22.680;2024-01-30T06:15:58;101445.60;;;1.02
70050;BMP180;57391;51.306;22.680;2024-01-30T06:18:00;101448.80;;;1.06
70050;BMP180;57391;51.306;22.680;2024-01-30T06:20:02;101447.80;;;1.10
70050;BMP180;57391;51.306;22.680;2024-01-30T06:22:05;101443.60;;;1.10
70050;BMP180;57391;51.306;22.680;2024-01-30T06:24:07;101443.60;;;1.10
70050;BMP180;57391;51.306;22.680;2024-01-30T06:26:08;101444.80;;;1.18
70050;BMP180;57391;51.306;22.680;2024-01-30T06:28:10;101443.00;;;1.20
70050;BMP180;57391;51.306;22.680;2024-01-30T06:30:13;101440.00;;;1.30
70050;BMP180;57391;51.306;22.680;2024-01-30T06:32:14;101438.80;;;1.30
70050;BMP180;57391;51.306;22.680;2024-01-30T06:34:16;101438.80;;;1.40
70050;BMP180;57391;51.306;22.680;2024-01-30T06:36:18;101443.20;;;1.60
70050;BMP180;57391;51.306;22.680;2024-01-30T06:38:20;101439.60;;;1.90
70050;BMP180;57391;51.306;22.680;2024-01-30T06:40:21;101433.80;;;2.22
70050;BMP180;57391;51.306;22.680;2024-01-30T06:42:23;101439.20;;;2.60
70050;BMP180;57391;51.306;22.680;2024-01-30T06:44:25;101437.60;;;3.00
70050;BMP180;57391;51.306;22.680;2024-01-30T06:46:26;101443.60;;;3.34
70050;BMP180;57391;51.306;22.680;2024-01-30T06:48:28;101438.00;;;3.66
70050;BMP180;57391;51.306;22.680;2024-01-30T06:50:30;101439.60;;;3.96
70050;BMP180;57391;51.306;22.680;2024-01-30T06:52:32;101439.80;;;4.28
70050;BMP180;57391;51.306;22.680;2024-01-30T06:54:34;101438.00;;;4.56
70050;BMP180;57391;51.306;22.680;2024-01-30T06:56:35;101438.60;;;4.80
70050;BMP180;57391;51.306;22.680;2024-01-30T06:58:37;101438.00;;;5.00
70050;BMP180;57391;51.306;22.680;2024-01-30T07:00:39;101441.40;;;5.20
70050;BMP180;57391;51.306;22.680;2024-01-30T07:02:41;101447.40;;;5.40
70050;BMP180;57391;51.306;22.680;2024-01-30T07:04:43;101442.40;;;5.60
70050;BMP180;57391;51.306;22.680;2024-01-30T07:06:44;101440.60;;;5.80
70050;BMP180;57391;51.306;22.680;2024-01-30T07:08:46;101437.00;;;6.00
70050;BMP180;57391;51.306;22.680;2024-01-30T07:10:48;101438.40;;;6.20
70050;BMP180;57391;51.306;22.680;2024-01-30T07:12:49;101441.60;;;6.40
70050;BMP180;57391;51.306;22.680;2024-01-30T07:14:52;101439.20;;;6.60
70050;BMP180;57391;51.306;22.680;2024-01-30T07:16:53;101439.80;;;6.70
70050;BMP180;57391;51.306;22.680;2024-01-30T07:18:55;101441.80;;;6.90
70050;BMP180;57391;51.306;22.680;2024-01-30T07:20:58;101442.40;;;7.00
70050;BMP180;57391;51.306;22.680;2024-01-30T07:22:59;101444.20;;;7.20
70050;BMP180;57391;51.306;22.680;2024-01-30T07:25:01;101441.80;;;7.30
70050;BMP180;57391;51.306;22.680;2024-01-30T07:27:03;101449.00;;;7.42
70050;BMP180;57391;51.306;22.680;2024-01-30T07:29:05;101450.00;;;7.54
70050;BMP180;57391;51.306;22.680;2024-01-30T07:31:07;101443.80;;;7.62
70050;BMP180;57391;51.306;22.680;2024-01-30T07:33:09;101441.60;;;7.72
70050;BMP180;57391;51.306;22.680;2024-01-30T07:35:10;101445.80;;;7.80
70050;BMP180;57391;51.306;22.680;2024-01-30T07:37:12;101447.00;;;7.98
70050;BMP180;57391;51.306;22.680;2024-01-30T07:39:16;101445.80;;;8.04
70050;BMP180;57391;51.306;22.680;2024-01-30T07:41:18;101445.60;;;8.10
70050;BMP180;57391;51.306;22.680;2024-01-30T07:43:20;101444.40;;;8.18
70050;BMP180;57391;51.306;22.680;2024-01-30T07:45:22;101447.80;;;8.20
70050;BMP180;57391;51.306;22.680;2024-01-30T07:47:25;101445.60;;;8.30
70050;BMP180;57391;51.306;22.680;2024-01-30T07:49:27;101442.20;;;8.26
70050;BMP180;57391;51.306;22.680;2024-01-30T07:51:29;101443.20;;;8.10
70050;BMP180;57391;51.306;22.680;2024-01-30T07:53:33;101444.40;;;8.02
70050;BMP180;57391;51.306;22.680;2024-01-30T07:55:35;101450.80;;;8.00
70050;BMP180;57391;51.306;22.680;2024-01-30T07:57:39;101453.40;;;7.90
70050;BMP180;57391;51.306;22.680;2024-01-30T07:59:45;101446.20;;;7.90
70050;BMP180;57391;51.306;22.680;2024-01-30T08:01:49;101449.40;;;8.00
70050;BMP180;57391;51.306;22.680;2024-01-30T08:03:51;101453.00;;;8.10
70050;BMP180;57391;51.306;22.680;2024-01-30T08:05:53;101455.60;;;8.20
70050;BMP180;57391;51.306;22.680;2024-01-30T08:07:54;101447.80;;;8.30
70050;BMP180;57391;51.306;22.680;2024-01-30T08:09:56;101452.60;;;8.40
70050;BMP180;57391;51.306;22.680;2024-01-30T08:11:58;101455.60;;;8.50
70050;BMP180;57391;51.306;22.680;2024-01-30T08:14:00;101453.20;;;8.60
70050;BMP180;57391;51.306;22.680;2024-01-30T08:16:01;101451.80;;;8.70
70050;BMP180;57391;51.306;22.680;2024-01-30T08:18:03;101449.40;;;8.70
70050;BMP180;57391;51.306;22.680;2024-01-30T08:20:07;101458.20;;;8.86
70050;BMP180;57391;51.306;22.680;2024-01-30T08:22:11;101456.40;;;8.90
70050;BMP180;57391;51.306;22.680;2024-01-30T08:24:13;101462.40;;;8.92
70050;BMP180;57391;51.306;22.680;2024-01-30T08:26:15;101460.00;;;9.00
70050;BMP180;57391;51.306;22.680;2024-01-30T08:28:18;101461.80;;;9.10
70050;BMP180;57391;51.306;22.680;2024-01-30T08:30:20;101466.00;;;9.10
70050;BMP180;57391;51.306;22.680;2024-01-30T08:32:22;101463.00;;;9.20
70050;BMP180;57391;51.306;22.680;2024-01-30T08:34:25;101464.20;;;9.20
70050;BMP180;57391;51.306;22.680;2024-01-30T08:36:26;101466.40;;;9.30
70050;BMP180;57391;51.306;22.680;2024-01-30T08:38:28;101464.20;;;9.40
70050;BMP180;57391;51.306;22.680;2024-01-30T08:40:30;101461.40;;;9.40
70050;BMP180;57391;51.306;22.680;2024-01-30T08:42:32;101458.00;;;9.50
70050;BMP180;57391;51.306;22.680;2024-01-30T08:44:34;101462.00;;;9.50
70050;BMP180;57391;51.306;22.680;2024-01-30T08:46:36;101463.00;;;9.60
70050;BMP180;57391;51.306;22.680;2024-01-30T08:48:38;101460.00;;;9.60
70050;BMP180;57391;51.306;22.680;2024-01-30T08:50:40;101464.60;;;9.70
70050;BMP180;57391;51.306;22.680;2024-01-30T08:52:42;101458.80;;;9.70
70050;BMP180;57391;51.306;22.680;2024-01-30T08:54:43;101459.40;;;9.70
70050;BMP180;57391;51.306;22.680;2024-01-30T08:56:45;101458.80;;;9.60
70050;BMP180;57391;51.306;22.680;2024-01-30T08:58:47;101456.40;;;9.60
70050;BMP180;57391;51.306;22.680;2024-01-30T09:00:48;101456.80;;;9.60
70050;BMP180;57391;51.306;22.680;2024-01-30T09:02:50;101453.20;;;9.60
70050;BMP180;57391;51.306;22.680;2024-01-30T09:04:52;101450.80;;;9.50
70050;BMP180;57391;51.306;22.680;2024-01-30T09:06:54;101452.80;;;9.40
70050;BMP180;57391;51.306;22.680;2024-01-30T09:08:55;101448.00;;;9.30
70050;BMP180;57391;51.306;22.680;2024-01-30T09:10:59;101444.40;;;9.14
70050;BMP180;57391;51.306;22.680;2024-01-30T09:13:01;101442.00;;;9.00
70050;BMP180;57391;51.306;22.680;2024-01-30T09:15:03;101439.60;;;8.90
70050;BMP180;57391;51.306;22.680;2024-01-30T09:17:05;101442.20;;;8.80
70050;BMP180;57391;51.306;22.680;2024-01-30T09:19:06;101437.80;;;8.70
70050;BMP180;57391;51.306;22.680;2024-01-30T09:21:08;101441.20;;;8.70
70050;BMP180;57391;51.306;22.680;2024-01-30T09:23:10;101439.80;;;8.64
70050;BMP180;57391;51.306;22.680;2024-01-30T09:25:12;101439.40;;;8.60
70050;BMP180;57391;51.306;22.680;2024-01-30T09:27:13;101439.20;;;8.60
70050;BMP180;57391;51.306;22.680;2024-01-30T09:29:15;101428.80;;;8.50
70050;BMP180;57391;51.306;22.680;2024-01-30T09:31:17;101437.00;;;8.50
70050;BMP180;57391;51.306;22.680;2024-01-30T09:33:19;101427.60;;;8.40
70050;BMP180;57391;51.306;22.680;2024-01-30T09:35:21;101428.00;;;8.30
70050;BMP180;57391;51.306;22.680;2024-01-30T09:37:23;101421.80;;;8.20
70050;BMP180;57391;51.306;22.680;2024-01-30T09:39:25;101419.60;;;8.10
70050;BMP180;57391;51.306;22.680;2024-01-30T09:41:27;101415.40;;;8.12
70050;BMP180;57391;51.306;22.680;2024-01-30T09:43:33;101417.40;;;8.10
70050;BMP180;57391;51.306;22.680;2024-01-30T09:45:36;101420.60;;;8.10
70050;BMP180;57391;51.306;22.680;2024-01-30T09:47:43;101415.00;;;8.02
70050;BMP180;57391;51.306;22.680;2024-01-30T09:49:45;101412.20;;;8.00
70050;BMP180;57391;51.306;22.680;2024-01-30T09:51:49;101409.40;;;8.00
70050;BMP180;57391;51.306;22.680;2024-01-30T09:53:53;101412.40;;;8.00
70050;BMP180;57391;51.306;22.680;2024-01-30T09:55:56;101409.20;;;8.00
70050;BMP180;57391;51.306;22.680;2024-01-30T09:57:57;101411.60;;;8.00
70050;BMP180;57391;51.306;22.680;2024-01-30T10:00:02;101405.00;;;8.00
70050;BMP180;57391;51.306;22.680;2024-01-30T10:02:04;101409.60;;;7.98
70050;BMP180;57391;51.306;22.680;2024-01-30T10:04:07;101408.00;;;7.90
70050;BMP180;57391;51.306;22.680;2024-01-30T10:06:09;101401.60;;;7.86
70050;BMP180;57391;51.306;22.680;2024-01-30T10:08:11;101397.40;;;7.80
70050;BMP180;57391;51.306;22.680;2024-01-30T10:10:13;101395.20;;;7.80
70050;BMP180;57391;51.306;22.680;2024-01-30T10:12:15;101395.00;;;7.80
70050;BMP180;57391;51.306;22.680;2024-01-30T10:14:17;101390.80;;;7.80
70050;BMP180;57391;51.306;22.680;2024-01-30T10:16:19;101392.80;;;7.82
70050;BMP180;57391;51.306;22.680;2024-01-30T10:18:22;101390.60;;;7.88
70050;BMP180;57391;51.306;22.680;2024-01-30T10:20:25;101382.80;;;7.90
70050;BMP180;57391;51.306;22.680;2024-01-30T10:22:26;101383.80;;;7.84
70050;BMP180;57391;51.306;22.680;2024-01-30T10:24:28;101385.00;;;7.90
70050;BMP180;57391;51.306;22.680;2024-01-30T10:26:33;101377.60;;;7.90
70050;BMP180;57391;51.306;22.680;2024-01-30T10:28:35;101375.60;;;7.92
70050;BMP180;57391;51.306;22.680;2024-01-30T10:30:37;101373.60;;;8.00
70050;BMP180;57391;51.306;22.680;2024-01-30T10:32:39;101369.40;;;8.00
70050;BMP180;57391;51.306;22.680;2024-01-30T10:34:41;101372.20;;;8.10
70050;BMP180;57391;51.306;22.680;2024-01-30T10:36:46;101374.00;;;8.10
70050;BMP180;57391;51.306;22.680;2024-01-30T10:38:51;101373.80;;;8.20
70050;BMP180;57391;51.306;22.680;2024-01-30T10:40:57;101367.00;;;8.20
70050;BMP180;57391;51.306;22.680;2024-01-30T10:43:01;101366.00;;;8.18
70050;BMP180;57391;51.306;22.680;2024-01-30T10:45:08;101364.20;;;8.18
70050;BMP180;57391;51.306;22.680;2024-01-30T10:47:12;101360.80;;;8.20
70050;BMP180;57391;51.306;22.680;2024-01-30T10:49:16;101361.20;;;8.20
70050;BMP180;57391;51.306;22.680;2024-01-30T10:51:19;101355.40;;;8.20
70050;BMP180;57391;51.306;22.680;2024-01-30T10:53:22;101351.20;;;8.20
70050;BMP180;57391;51.306;22.680;2024-01-30T10:55:25;101347.80;;;8.20
70050;BMP180;57391;51.306;22.680;2024-01-30T10:57:29;101341.60;;;8.28
70050;BMP180;57391;51.306;22.680;2024-01-30T10:59:32;101333.80;;;8.30
70050;BMP180;57391;51.306;22.680;2024-01-30T11:01:35;101340.00;;;8.30
70050;BMP180;57391;51.306;22.680;2024-01-30T11:03:37;101344.20;;;8.30
70050;BMP180;57391;51.306;22.680;2024-01-30T11:05:41;101341.80;;;8.30
70050;BMP180;57391;51.306;22.680;2024-01-30T11:07:42;101345.80;;;8.30
70050;BMP180;57391;51.306;22.680;2024-01-30T11:09:53;101342.00;;;8.38
70050;BMP180;57391;51.306;22.680;2024-01-30T11:11:58;101338.20;;;8.42
70050;BMP180;57391;51.306;22.680;2024-01-30T11:14:04;101340.80;;;8.50
70050;BMP180;57391;51.306;22.680;2024-01-30T11:16:06;101336.80;;;8.50
70050;BMP180;57391;51.306;22.680;2024-01-30T11:18:08;101333.80;;;8.50
70050;BMP180;57391;51.306;22.680;2024-01-30T11:20:15;101330.80;;;8.60
70050;BMP180;57391;51.306;22.680;2024-01-30T11:22:20;101329.80;;;8.60
70050;BMP180;57391;51.306;22.680;2024-01-30T11:24:23;101332.20;;;8.70
70050;BMP180;57391;51.306;22.680;2024-01-30T11:26:28;101335.40;;;8.70
70050;BMP180;57391;51.306;22.680;2024-01-30T11:28:33;101327.80;;;8.70
70050;BMP180;57391;51.306;22.680;2024-01-30T11:30:36;101328.60;;;8.70
70050;BMP180;57391;51.306;22.680;2024-01-30T11:32:37;101330.20;;;8.78
70050;BMP180;57391;51.306;22.680;2024-01-30T11:34:41;101330.00;;;8.80